createdAt,value
2018-12-04T00:00:09.068Z,23.03
2018-12-04T00:05:14.584Z,21.90
2018-12-04T00:10:18.719Z,21.20
2018-12-04T00:15:23.140Z,21.80
2018-12-04T00:20:27.652Z,20.43
2018-12-04T00:25:31.891Z,20.97
2018-12-04T00:30:41.023Z,20.23
2018-12-04T00:35:45.325Z,20.87
2018-12-04T00:40:49.563Z,22.30
2018-12-04T00:45:54.031Z,23.67
2018-12-04T00:50:58.215Z,27.73
2018-12-04T00:56:02.762Z,25.23
2018-12-04T01:01:07.515Z,22.60
2018-12-04T01:06:12.133Z,20.70
2018-12-04T01:11:16.570Z,20.70
2018-12-04T01:16:38.248Z,22.73
2018-12-04T01:21:42.658Z,20.23
2018-12-04T01:26:47.003Z,26.83
2018-12-04T01:31:51.416Z,17.57
2018-12-04T01:36:56.020Z,18.60
2018-12-04T01:42:00.325Z,18.77
2018-12-04T01:47:04.569Z,25.40
2018-12-04T01:52:08.932Z,22.80
2018-12-04T01:57:13.295Z,24.00
2018-12-04T02:02:17.922Z,24.13
2018-12-04T02:07:22.185Z,19.10
2018-12-04T02:12:27.054Z,20.53
2018-12-04T02:17:31.398Z,20.30
2018-12-04T02:22:36.547Z,22.80
2018-12-04T02:27:40.798Z,26.07
2018-12-04T02:32:45.667Z,22.27
2018-12-04T02:37:50.567Z,23.73
2018-12-04T02:42:54.794Z,24.47
2018-12-04T02:47:59.394Z,25.93
2018-12-04T02:53:03.788Z,24.93
2018-12-04T02:58:08.715Z,22.13
2018-12-04T03:03:13.570Z,20.80
2018-12-04T03:08:17.841Z,18.03
2018-12-04T03:13:22.273Z,19.10
2018-12-04T03:18:27.018Z,19.83
2018-12-04T03:23:31.248Z,18.00
2018-12-04T03:28:35.647Z,21.40
2018-12-04T03:33:53.459Z,23.07
2018-12-04T03:38:57.754Z,17.20
2018-12-04T03:44:03.082Z,20.40
2018-12-04T03:49:08.556Z,23.87
2018-12-04T03:54:19.453Z,28.00
2018-12-04T03:59:24.164Z,23.83
2018-12-04T04:04:28.332Z,23.20
2018-12-04T04:09:32.463Z,23.30
2018-12-04T04:14:38.718Z,20.80
2018-12-04T04:19:42.906Z,22.23
2018-12-04T04:24:47.122Z,21.10
2018-12-04T04:29:51.598Z,21.57
2018-12-04T04:34:55.944Z,23.10
2018-12-04T04:40:01.407Z,22.57
2018-12-04T04:45:06.755Z,26.23
2018-12-04T04:50:11.161Z,25.00
2018-12-04T04:55:15.557Z,23.20
2018-12-04T05:00:21.173Z,24.20
2018-12-04T05:05:25.716Z,23.57
2018-12-04T05:10:30.018Z,21.63
2018-12-04T05:15:35.016Z,23.00
2018-12-04T05:20:39.233Z,20.47
2018-12-04T05:25:43.573Z,20.20
2018-12-04T05:30:47.820Z,21.00
2018-12-04T05:35:52.185Z,20.37
2018-12-04T05:40:56.428Z,23.03
2018-12-04T05:46:01.008Z,25.10
2018-12-04T05:51:05.958Z,22.40
2018-12-04T05:56:12.490Z,26.13
2018-12-04T06:01:17.030Z,25.70
2018-12-04T06:06:22.106Z,27.07
2018-12-04T06:11:31.306Z,27.60
2018-12-04T06:16:35.848Z,20.90
2018-12-04T06:21:41.319Z,22.63
2018-12-04T06:26:46.962Z,20.80
2018-12-04T06:31:57.383Z,23.07
2018-12-04T06:37:01.757Z,24.67
2018-12-04T06:42:06.202Z,31.63
2018-12-04T06:47:10.447Z,26.10
2018-12-04T06:52:16.228Z,27.10
2018-12-04T06:57:20.718Z,32.57
2018-12-04T07:02:25.007Z,26.83
2018-12-04T07:07:29.193Z,22.53
2018-12-04T07:12:33.410Z,22.63
2018-12-04T07:17:47.008Z,23.70
2018-12-04T07:22:51.746Z,25.43
2018-12-04T07:27:57.467Z,25.47
2018-12-04T07:33:12.804Z,24.50
2018-12-04T07:38:16.973Z,24.77
2018-12-04T07:43:21.342Z,24.13
2018-12-04T07:48:26.179Z,24.47
2018-12-04T07:53:30.452Z,23.00
2018-12-04T07:58:34.760Z,24.40
2018-12-04T08:03:39.001Z,21.30
2018-12-04T08:08:49.049Z,21.40
2018-12-04T08:13:53.265Z,23.50
2018-12-04T08:18:57.541Z,23.53
2018-12-04T08:24:01.939Z,22.20
2018-12-04T08:29:06.319Z,24.83
2018-12-04T08:34:11.289Z,25.63
2018-12-04T08:39:15.625Z,25.57
2018-12-04T08:44:20.020Z,21.37
2018-12-04T08:49:24.474Z,21.00
2018-12-04T08:54:28.841Z,20.43
2018-12-04T08:59:33.173Z,21.00
2018-12-04T09:04:37.828Z,25.50
2018-12-04T09:09:42.105Z,21.47
2018-12-04T09:14:46.639Z,23.67
2018-12-04T09:19:51.095Z,23.27
2018-12-04T09:24:55.631Z,21.63
2018-12-04T09:30:00.121Z,23.37
2018-12-04T09:35:04.942Z,23.47
2018-12-04T09:40:10.903Z,22.10
2018-12-04T09:45:21.345Z,21.43
2018-12-04T09:50:25.681Z,19.17
2018-12-04T09:55:30.047Z,18.20
2018-12-04T10:00:34.478Z,18.57
2018-12-04T10:05:39.295Z,19.77
2018-12-04T10:10:43.908Z,19.90
2018-12-04T10:15:48.204Z,19.97
2018-12-04T10:20:52.744Z,22.30
2018-12-04T10:25:57.024Z,22.73
2018-12-04T10:31:10.798Z,21.27
2018-12-04T10:36:15.126Z,24.00
2018-12-04T10:41:19.480Z,24.53
2018-12-04T10:46:23.692Z,23.43
2018-12-04T10:51:32.970Z,20.13
2018-12-04T10:56:37.163Z,18.77
2018-12-04T11:01:51.551Z,17.40
2018-12-04T11:06:55.812Z,21.67
2018-12-04T11:12:00.028Z,21.87
2018-12-04T11:17:04.273Z,22.67
2018-12-04T11:22:08.692Z,23.37
2018-12-04T11:27:13.002Z,18.30
2018-12-04T11:32:22.320Z,19.83
2018-12-04T11:37:26.559Z,19.87
2018-12-04T11:42:30.862Z,18.87
2018-12-04T11:47:35.151Z,19.13
2018-12-04T11:52:39.304Z,20.03
2018-12-04T11:57:46.273Z,18.50
2018-12-04T12:02:51.562Z,19.67
2018-12-04T12:07:55.875Z,20.83
2018-12-04T12:13:00.370Z,18.37
2018-12-04T12:18:04.804Z,21.93
2018-12-04T12:23:09.044Z,18.50
2018-12-04T12:28:13.562Z,20.60
2018-12-04T12:33:17.818Z,20.77
2018-12-04T12:38:24.409Z,22.53
2018-12-04T12:49:04.112Z,17.53
2018-12-04T12:54:09.206Z,18.87
2018-12-04T12:59:13.532Z,18.80
2018-12-04T13:04:22.924Z,20.60
2018-12-04T13:09:27.451Z,25.70
2018-12-04T13:14:32.547Z,20.00
2018-12-04T13:19:37.994Z,19.17
2018-12-04T13:24:42.680Z,18.97
2018-12-04T13:29:47.667Z,19.60
2018-12-04T13:34:52.107Z,19.77
2018-12-04T13:39:57.898Z,21.30
2018-12-04T13:45:02.693Z,23.53
2018-12-04T13:50:09.632Z,18.47
2018-12-04T13:55:14.376Z,18.10
2018-12-04T14:00:18.823Z,20.93
2018-12-04T14:05:23.548Z,20.30
2018-12-04T14:10:30.743Z,18.63
2018-12-04T14:15:35.142Z,17.30
2018-12-04T14:20:39.370Z,21.53
2018-12-04T14:25:49.274Z,24.30
2018-12-04T14:30:55.576Z,24.20
2018-12-04T14:36:00.578Z,26.63
2018-12-04T14:41:04.978Z,24.93
2018-12-04T14:46:10.182Z,20.77
2018-12-04T14:51:15.611Z,20.33
2018-12-04T14:56:20.908Z,18.23
2018-12-04T15:01:25.231Z,19.03
2018-12-04T15:06:29.842Z,19.40
2018-12-04T15:11:35.632Z,18.37
2018-12-04T15:16:40.663Z,19.07
2018-12-04T15:21:45.364Z,19.27
2018-12-04T15:26:49.925Z,19.50
2018-12-04T15:31:54.320Z,19.60
2018-12-04T15:36:58.595Z,20.87
2018-12-04T15:42:03.480Z,19.90
2018-12-04T15:47:08.077Z,18.97
2018-12-04T15:52:12.357Z,16.57
2018-12-04T15:57:16.657Z,17.80
2018-12-04T16:02:20.904Z,20.07
2018-12-04T16:07:25.167Z,21.30
2018-12-04T16:12:29.399Z,24.37
2018-12-04T16:17:33.673Z,25.77
2018-12-04T16:22:37.991Z,20.63
2018-12-04T16:27:42.297Z,17.13
2018-12-04T16:32:46.718Z,21.10
2018-12-04T16:38:05.011Z,19.20
2018-12-04T16:43:09.462Z,21.33
2018-12-04T16:48:13.905Z,19.00
2018-12-04T16:53:18.244Z,18.17
2018-12-04T16:58:22.542Z,19.73
2018-12-04T17:03:27.348Z,19.27
2018-12-04T17:08:31.871Z,19.60
2018-12-04T17:13:41.085Z,17.93
2018-12-04T17:18:45.478Z,22.37
2018-12-04T17:23:49.899Z,26.47
2018-12-04T17:28:54.271Z,20.57
2018-12-04T17:33:58.642Z,19.97
2018-12-04T17:39:03.406Z,19.00
2018-12-04T17:44:09.753Z,21.17
2018-12-04T17:49:14.095Z,23.10
2018-12-04T17:54:18.591Z,20.37
2018-12-04T17:59:24.955Z,20.60
2018-12-04T18:04:29.229Z,19.90
2018-12-04T18:09:36.017Z,22.10
2018-12-04T18:14:42.539Z,20.70
2018-12-04T18:19:46.867Z,23.10
2018-12-04T18:24:51.255Z,23.37
2018-12-04T18:29:55.727Z,27.70
2018-12-04T18:35:01.401Z,28.40
2018-12-04T18:40:06.910Z,26.90
2018-12-04T18:45:16.397Z,28.17
2018-12-04T18:50:20.913Z,26.87
2018-12-04T18:55:25.171Z,25.17
2018-12-04T19:00:29.551Z,26.90
2018-12-04T19:05:34.018Z,24.93
2018-12-04T19:10:38.724Z,27.10
2018-12-04T19:15:43.582Z,29.47
2018-12-04T19:20:47.977Z,29.57
2018-12-04T19:25:53.263Z,30.77
2018-12-04T19:31:02.739Z,24.00
2018-12-04T19:36:04.639Z,27.07
2018-12-04T19:41:09.119Z,29.90
2018-12-04T19:46:13.661Z,30.27
2018-12-04T19:51:18.961Z,31.73
2018-12-04T19:56:24.143Z,31.70
2018-12-04T20:01:33.576Z,37.00
2018-12-04T20:06:38.764Z,37.17
2018-12-04T20:11:44.214Z,33.13
2018-12-04T20:16:48.558Z,33.53
2018-12-04T20:21:53.156Z,35.70
2018-12-04T20:26:57.638Z,42.80
2018-12-04T20:32:09.103Z,38.47
2018-12-04T20:37:13.595Z,33.17
2018-12-04T20:42:23.198Z,37.00
2018-12-04T20:47:24.354Z,37.07
2018-12-04T20:52:28.825Z,33.17
2018-12-04T20:57:33.134Z,33.87
2018-12-04T21:02:37.327Z,34.20
2018-12-04T21:07:42.022Z,37.40
2018-12-04T21:12:46.483Z,37.17
2018-12-04T21:17:50.948Z,36.80
2018-12-04T21:22:56.463Z,39.80
2018-12-04T21:28:06.713Z,40.80
2018-12-04T21:33:16.515Z,36.30
2018-12-04T21:38:26.038Z,39.23
2018-12-04T21:43:35.537Z,40.03
2018-12-04T21:48:40.917Z,37.70
2018-12-04T21:53:45.670Z,39.67
2018-12-04T21:58:50.245Z,41.10
2018-12-04T22:03:57.633Z,40.33
2018-12-04T22:09:02.067Z,36.43
2018-12-04T22:19:23.967Z,41.97
2018-12-04T22:24:28.723Z,39.50
2018-12-04T22:29:41.046Z,36.83
2018-12-04T22:34:45.461Z,36.60
2018-12-04T22:39:50.197Z,40.17
2018-12-04T22:44:59.359Z,37.53
2018-12-04T22:50:03.973Z,38.63
2018-12-04T22:55:08.186Z,44.87
2018-12-04T23:00:22.087Z,38.67
2018-12-04T23:05:28.372Z,43.70
2018-12-04T23:10:38.404Z,41.90
2018-12-04T23:15:42.731Z,37.90
2018-12-04T23:20:47.023Z,31.57
2018-12-04T23:25:55.607Z,33.80
2018-12-04T23:30:59.945Z,38.13
2018-12-04T23:36:04.230Z,34.57
2018-12-04T23:41:08.534Z,35.47
2018-12-04T23:46:13.879Z,27.73
2018-12-04T23:51:18.271Z,34.90
2018-12-04T23:56:24.639Z,28.20
